createdAt,value
2023-05-04T00:00:08.576Z,12.76
2023-05-04T00:02:36.562Z,12.67
2023-05-04T00:05:07.338Z,12.74
2023-05-04T00:07:35.149Z,12.83
2023-05-04T00:10:03.245Z,12.80
2023-05-04T00:12:31.406Z,12.82
2023-05-04T00:14:59.211Z,12.82
2023-05-04T00:17:27.162Z,12.65
2023-05-04T00:19:54.908Z,12.74
2023-05-04T00:22:24.026Z,12.78
2023-05-04T00:24:51.736Z,12.77
2023-05-04T00:27:19.517Z,12.72
2023-05-04T00:29:47.287Z,12.68
2023-05-04T00:32:14.992Z,12.62
2023-05-04T00:34:42.773Z,12.57
2023-05-04T00:37:10.575Z,12.54
2023-05-04T00:39:39.664Z,12.47
2023-05-04T00:42:07.678Z,12.44
2023-05-04T00:44:35.642Z,12.46
2023-05-04T00:47:04.297Z,12.44
2023-05-04T00:49:32.159Z,12.45
2023-05-04T00:52:04.097Z,12.49
2023-05-04T00:54:33.217Z,12.48
2023-05-04T00:57:03.787Z,12.53
2023-05-04T00:59:31.699Z,12.47
2023-05-04T01:01:59.380Z,12.46
2023-05-04T01:04:27.365Z,12.46
2023-05-04T01:07:01.929Z,12.48
2023-05-04T01:09:37.141Z,12.51
2023-05-04T01:12:08.724Z,12.46
2023-05-04T01:14:37.380Z,12.44
2023-05-04T01:17:06.985Z,12.33
2023-05-04T01:19:35.327Z,12.31
2023-05-04T01:22:06.225Z,12.41
2023-05-04T01:24:34.457Z,12.42
2023-05-04T01:27:06.629Z,12.35
2023-05-04T01:29:42.558Z,12.40
2023-05-04T01:32:11.937Z,12.36
2023-05-04T01:34:41.574Z,12.37
2023-05-04T01:37:11.156Z,12.32
2023-05-04T01:39:38.901Z,12.31
2023-05-04T01:42:07.390Z,12.30
2023-05-04T01:44:35.148Z,12.18
2023-05-04T01:47:02.940Z,12.15
2023-05-04T01:49:30.850Z,12.14
2023-05-04T01:51:58.572Z,12.17
2023-05-04T01:54:27.771Z,12.09
2023-05-04T01:56:55.552Z,11.97
2023-05-04T01:59:23.453Z,11.91
2023-05-04T02:01:51.362Z,11.95
2023-05-04T02:04:19.244Z,11.96
2023-05-04T02:06:47.841Z,11.94
2023-05-04T02:09:16.464Z,11.92
2023-05-04T02:11:46.579Z,11.90
2023-05-04T02:14:14.330Z,11.88
2023-05-04T02:16:42.161Z,11.82
2023-05-04T02:19:09.917Z,11.82
2023-05-04T02:21:37.685Z,11.75
2023-05-04T02:24:06.966Z,11.77
2023-05-04T02:26:34.780Z,11.80
2023-05-04T02:29:04.973Z,11.76
2023-05-04T02:31:32.899Z,11.61
2023-05-04T02:34:01.396Z,11.66
2023-05-04T02:36:29.142Z,11.62
2023-05-04T02:38:56.877Z,11.55
2023-05-04T02:41:24.638Z,11.53
2023-05-04T02:43:52.860Z,11.58
2023-05-04T02:46:22.129Z,11.59
2023-05-04T02:48:49.855Z,11.54
2023-05-04T02:51:17.743Z,11.53
2023-05-04T02:53:45.540Z,11.58
2023-05-04T02:56:13.357Z,11.65
2023-05-04T02:58:41.135Z,11.67
2023-05-04T03:01:08.924Z,11.68
2023-05-04T03:03:38.097Z,11.69
2023-05-04T03:06:06.362Z,11.63
2023-05-04T03:08:34.216Z,11.68
2023-05-04T03:11:01.983Z,11.61
2023-05-04T03:13:29.681Z,11.66
2023-05-04T03:15:57.534Z,11.53
2023-05-04T03:18:25.538Z,11.44
2023-05-04T03:20:55.074Z,11.42
2023-05-04T03:23:23.629Z,11.40
2023-05-04T03:25:51.368Z,11.39
2023-05-04T03:28:19.111Z,11.41
2023-05-04T03:30:47.012Z,11.41
2023-05-04T03:33:15.332Z,11.44
2023-05-04T03:35:43.260Z,11.41
2023-05-04T03:38:12.948Z,11.35
2023-05-04T03:40:40.777Z,11.32
2023-05-04T03:43:08.482Z,11.32
2023-05-04T03:45:36.926Z,11.24
2023-05-04T03:48:05.365Z,11.25
2023-05-04T03:50:33.207Z,11.32
2023-05-04T03:53:00.978Z,11.26
2023-05-04T03:55:30.991Z,11.17
2023-05-04T03:57:59.265Z,11.28
2023-05-04T04:00:28.034Z,11.37
2023-05-04T04:03:05.014Z,11.40
2023-05-04T04:05:34.173Z,11.32
2023-05-04T04:08:01.924Z,11.29
2023-05-04T04:10:31.868Z,11.28
2023-05-04T04:12:59.598Z,11.24
2023-05-04T04:15:27.728Z,11.15
2023-05-04T04:17:55.560Z,11.11
2023-05-04T04:20:23.481Z,11.06
2023-05-04T04:22:51.244Z,11.14
2023-05-04T04:25:19.084Z,11.08
2023-05-04T04:27:48.206Z,11.10
2023-05-04T04:30:16.913Z,11.05
2023-05-04T04:32:45.745Z,11.04
2023-05-04T04:35:14.068Z,10.96
2023-05-04T04:37:42.117Z,11.00
2023-05-04T04:40:11.459Z,11.00
2023-05-04T04:42:39.223Z,11.07
2023-05-04T04:45:09.654Z,11.18
2023-05-04T04:47:37.640Z,11.25
2023-05-04T04:50:06.819Z,11.28
2023-05-04T04:52:34.843Z,11.12
2023-05-04T04:55:04.291Z,11.24
2023-05-04T04:57:32.192Z,11.17
2023-05-04T05:00:00.828Z,11.13
2023-05-04T05:02:30.041Z,11.24
2023-05-04T05:04:58.042Z,11.24
2023-05-04T05:07:25.937Z,11.26
2023-05-04T05:09:53.752Z,11.28
2023-05-04T05:12:21.492Z,11.34
2023-05-04T05:14:50.691Z,11.38
2023-05-04T05:17:19.139Z,11.33
2023-05-04T05:19:48.183Z,11.46
2023-05-04T05:22:15.906Z,11.47
2023-05-04T05:24:43.789Z,11.54
2023-05-04T05:27:11.443Z,11.64
2023-05-04T05:29:39.543Z,11.72
2023-05-04T05:32:07.434Z,11.82
2023-05-04T05:34:38.834Z,11.90
2023-05-04T05:37:07.966Z,11.95
2023-05-04T05:39:36.873Z,12.04
2023-05-04T05:42:04.628Z,12.13
2023-05-04T05:44:32.440Z,12.15
2023-05-04T05:47:00.187Z,12.25
2023-05-04T05:49:27.904Z,12.31
2023-05-04T05:51:55.688Z,12.36
2023-05-04T05:54:24.785Z,12.35
2023-05-04T05:56:52.632Z,12.44
2023-05-04T05:59:20.358Z,12.50
2023-05-04T06:01:48.079Z,12.46
2023-05-04T06:04:16.001Z,12.55
2023-05-04T06:06:45.802Z,12.60
2023-05-04T06:09:14.052Z,12.62
2023-05-04T06:11:43.245Z,12.71
2023-05-04T06:14:10.988Z,12.75
2023-05-04T06:16:38.743Z,12.79
2023-05-04T06:19:07.291Z,12.71
2023-05-04T06:21:35.093Z,12.80
2023-05-04T06:24:02.793Z,12.83
2023-05-04T06:26:30.571Z,12.88
2023-05-04T06:28:59.735Z,12.93
2023-05-04T06:31:28.033Z,12.96
2023-05-04T06:33:55.845Z,13.03
2023-05-04T06:36:25.645Z,13.07
2023-05-04T06:38:55.484Z,13.11
2023-05-04T06:41:23.389Z,13.15
2023-05-04T06:43:51.584Z,13.04
2023-05-04T06:46:20.713Z,13.24
2023-05-04T06:48:48.680Z,13.30
2023-05-04T06:51:16.592Z,13.32
2023-05-04T06:53:44.360Z,13.41
2023-05-04T06:56:12.432Z,13.45
2023-05-04T06:58:40.162Z,13.50
2023-05-04T07:01:09.249Z,13.53
2023-05-04T07:03:38.820Z,13.61
2023-05-04T07:06:07.141Z,13.64
2023-05-04T07:08:35.013Z,13.70
2023-05-04T07:11:02.776Z,13.73
2023-05-04T07:13:30.559Z,13.77
2023-05-04T07:15:58.408Z,13.85
2023-05-04T07:18:26.289Z,13.89
2023-05-04T07:21:01.793Z,13.92
2023-05-04T07:23:39.278Z,14.06
2023-05-04T07:26:08.045Z,14.13
2023-05-04T07:28:35.784Z,14.18
2023-05-04T07:31:03.813Z,14.22
2023-05-04T07:33:31.619Z,14.21
2023-05-04T07:36:01.375Z,14.32
2023-05-04T07:38:29.168Z,14.43
2023-05-04T07:40:57.481Z,14.43
2023-05-04T07:43:25.495Z,14.47
2023-05-04T07:45:54.407Z,14.48
2023-05-04T07:48:24.005Z,14.51
2023-05-04T07:50:53.785Z,14.59
2023-05-04T07:53:25.333Z,14.66
2023-05-04T07:55:54.201Z,14.67
2023-05-04T07:58:22.322Z,14.72
2023-05-04T08:00:50.510Z,14.78
2023-05-04T08:03:18.311Z,14.78
2023-05-04T08:05:46.310Z,14.84
2023-05-04T08:08:14.056Z,14.88
2023-05-04T08:10:43.123Z,14.97
2023-05-04T08:13:10.906Z,14.95
2023-05-04T08:15:38.727Z,14.91
2023-05-04T08:18:06.499Z,15.02
2023-05-04T08:20:34.409Z,15.17
2023-05-04T08:23:03.832Z,15.20
2023-05-04T08:25:31.626Z,15.22
2023-05-04T08:28:01.891Z,15.29
2023-05-04T08:30:31.297Z,15.35
2023-05-04T08:33:00.300Z,15.39
2023-05-04T08:35:28.745Z,15.31
2023-05-04T08:37:56.643Z,15.54
2023-05-04T08:40:24.995Z,15.58
2023-05-04T08:42:52.981Z,15.65
2023-05-04T08:45:23.134Z,15.67
2023-05-04T08:47:51.798Z,15.72
2023-05-04T08:50:19.567Z,15.77
2023-05-04T08:52:47.935Z,15.69
2023-05-04T08:55:17.104Z,15.85
2023-05-04T08:57:45.532Z,15.91
2023-05-04T09:00:17.317Z,15.95
2023-05-04T09:02:47.073Z,15.93
2023-05-04T09:05:15.869Z,16.01
2023-05-04T09:07:43.777Z,16.04
2023-05-04T09:10:11.991Z,16.04
2023-05-04T09:12:39.740Z,16.12
2023-05-04T09:15:18.122Z,16.16
2023-05-04T09:17:58.269Z,16.24
2023-05-04T09:20:26.728Z,16.29
2023-05-04T09:23:02.162Z,16.45
2023-05-04T09:25:29.887Z,16.48
2023-05-04T09:27:58.258Z,16.46
2023-05-04T09:30:26.132Z,16.54
2023-05-04T09:32:53.931Z,16.56
2023-05-04T09:35:33.718Z,16.65
2023-05-04T09:38:02.237Z,16.66
2023-05-04T09:40:33.831Z,16.71
2023-05-04T09:43:01.998Z,16.80
2023-05-04T09:45:40.097Z,16.78
2023-05-04T09:48:18.856Z,16.77
2023-05-04T09:50:55.183Z,16.93
2023-05-04T09:53:24.991Z,16.99
2023-05-04T09:56:04.462Z,17.12
2023-05-04T09:58:34.383Z,17.25
2023-05-04T10:01:02.697Z,17.37
2023-05-04T10:03:31.241Z,17.42
2023-05-04T10:06:01.276Z,17.56
2023-05-04T10:08:29.538Z,17.61
2023-05-04T10:10:58.454Z,17.49
2023-05-04T10:13:26.866Z,17.71
2023-05-04T10:16:10.674Z,17.82
2023-05-04T10:18:53.509Z,17.99
2023-05-04T10:21:33.944Z,18.20
2023-05-04T10:24:38.324Z,18.33
2023-05-04T10:27:11.785Z,18.61
2023-05-04T10:29:40.616Z,18.89
2023-05-04T10:32:18.957Z,19.09
2023-05-04T10:34:46.836Z,19.47
2023-05-04T10:37:21.795Z,19.76
2023-05-04T10:39:53.778Z,20.03
2023-05-04T10:42:22.287Z,20.39
2023-05-04T10:44:51.347Z,20.57
2023-05-04T10:47:29.620Z,20.77
2023-05-04T10:50:05.220Z,21.14
2023-05-04T10:52:46.623Z,21.36
2023-05-04T10:55:15.263Z,21.54
2023-05-04T10:57:50.716Z,21.53
2023-05-04T11:00:19.550Z,21.87
2023-05-04T11:02:48.815Z,22.20
2023-05-04T11:05:19.951Z,22.40
2023-05-04T11:07:53.098Z,22.57
2023-05-04T11:10:22.793Z,22.73
2023-05-04T11:12:50.732Z,22.86
2023-05-04T11:15:20.071Z,22.74
2023-05-04T11:17:48.487Z,22.93
2023-05-04T11:20:23.212Z,23.14
2023-05-04T11:22:53.426Z,23.46
2023-05-04T11:25:28.646Z,23.57
2023-05-04T11:27:56.996Z,23.77
2023-05-04T11:30:32.590Z,23.85
2023-05-04T11:33:00.942Z,24.05
2023-05-04T11:35:29.023Z,24.29
2023-05-04T11:37:58.072Z,24.28
2023-05-04T11:40:27.371Z,24.62
2023-05-04T11:42:57.530Z,24.84
2023-05-04T11:45:29.497Z,24.97
2023-05-04T11:47:58.527Z,25.10
2023-05-04T11:50:27.875Z,25.18
2023-05-04T11:53:06.963Z,25.07
2023-05-04T11:55:34.881Z,25.28
2023-05-04T11:58:04.343Z,25.40
2023-05-04T12:00:38.680Z,25.53
2023-05-04T12:03:07.477Z,25.54
2023-05-04T12:05:36.896Z,25.56
2023-05-04T12:08:07.509Z,25.95
2023-05-04T12:10:35.654Z,25.90
2023-05-04T12:13:03.647Z,26.15
2023-05-04T12:15:33.509Z,26.20
2023-05-04T12:18:03.000Z,26.28
2023-05-04T12:20:31.619Z,26.60
2023-05-04T12:22:59.525Z,26.53
2023-05-04T12:25:28.657Z,26.53
2023-05-04T12:27:56.405Z,26.70
2023-05-04T12:30:24.152Z,26.80
2023-05-04T12:32:51.967Z,27.19
2023-05-04T12:35:19.781Z,27.20
2023-05-04T12:37:48.096Z,27.19
2023-05-04T12:40:27.629Z,27.41
2023-05-04T12:42:58.523Z,27.48
2023-05-04T12:45:26.287Z,27.74
2023-05-04T12:47:54.030Z,27.89
2023-05-04T12:50:21.930Z,27.86
2023-05-04T12:52:49.720Z,28.18
2023-05-04T12:55:18.570Z,28.19
2023-05-04T12:57:46.472Z,28.36
2023-05-04T13:00:16.706Z,28.35
2023-05-04T13:02:44.537Z,28.61
2023-05-04T13:05:12.921Z,28.91
2023-05-04T13:07:40.714Z,28.72
2023-05-04T13:10:09.133Z,28.49
2023-05-04T13:12:38.269Z,28.73
2023-05-04T13:15:07.501Z,28.77
2023-05-04T13:17:37.830Z,29.04
2023-05-04T13:20:06.672Z,29.04
2023-05-04T13:22:34.617Z,29.21
2023-05-04T13:25:02.494Z,29.18
2023-05-04T13:27:30.648Z,29.26
2023-05-04T13:30:00.965Z,29.27
2023-05-04T13:32:28.773Z,29.37
2023-05-04T13:34:58.010Z,29.32
2023-05-04T13:37:25.827Z,29.05
2023-05-04T13:39:53.872Z,29.23
2023-05-04T13:42:21.625Z,29.26
2023-05-04T13:44:49.321Z,29.30
2023-05-04T13:47:17.549Z,29.30
2023-05-04T13:49:45.523Z,29.27
2023-05-04T13:52:14.674Z,29.11
2023-05-04T13:54:42.378Z,28.90
2023-05-04T13:57:10.091Z,28.55
2023-05-04T13:59:37.856Z,28.54
2023-05-04T14:02:05.729Z,28.12
2023-05-04T14:04:33.455Z,27.72
2023-05-04T14:07:01.298Z,27.50
2023-05-04T14:09:30.458Z,27.42
2023-05-04T14:11:58.681Z,27.25
2023-05-04T14:14:26.453Z,27.04
2023-05-04T14:16:54.235Z,26.94
2023-05-04T14:19:22.012Z,26.59
2023-05-04T14:21:49.724Z,26.67
2023-05-04T14:24:17.474Z,26.68
2023-05-04T14:26:46.764Z,26.51
2023-05-04T14:29:14.485Z,26.42
2023-05-04T14:31:42.279Z,26.17
2023-05-04T14:34:10.862Z,26.07
2023-05-04T14:36:38.569Z,25.95
2023-05-04T14:39:06.476Z,25.88
2023-05-04T14:41:35.535Z,25.81
2023-05-04T14:44:05.577Z,25.79
2023-05-04T14:46:33.895Z,25.81
2023-05-04T14:49:01.767Z,25.69
2023-05-04T14:51:29.996Z,25.87
2023-05-04T14:53:59.610Z,25.85
2023-05-04T14:56:28.474Z,25.87
2023-05-04T14:58:57.246Z,26.12
2023-05-04T15:01:26.493Z,26.10
2023-05-04T15:03:54.377Z,25.84
2023-05-04T15:06:22.240Z,25.87
2023-05-04T15:08:49.977Z,25.84
2023-05-04T15:11:19.309Z,25.71
2023-05-04T15:13:47.277Z,25.59
2023-05-04T15:16:18.250Z,25.47
2023-05-04T15:18:47.368Z,25.46
2023-05-04T15:21:15.156Z,25.40
2023-05-04T15:23:43.004Z,25.24
2023-05-04T15:26:10.818Z,25.13
2023-05-04T15:28:38.569Z,25.13
2023-05-04T15:31:07.327Z,25.07
2023-05-04T15:33:35.065Z,25.03
2023-05-04T15:36:07.639Z,24.97
2023-05-04T15:38:36.111Z,24.91
2023-05-04T15:41:05.475Z,24.89
2023-05-04T15:43:33.268Z,24.90
2023-05-04T15:46:01.122Z,24.89
2023-05-04T15:48:28.883Z,24.89
2023-05-04T15:50:56.671Z,24.86
2023-05-04T15:53:25.819Z,24.80
2023-05-04T15:55:53.752Z,24.73
2023-05-04T15:58:22.884Z,24.84
2023-05-04T16:00:50.785Z,24.82
2023-05-04T16:03:18.891Z,24.82
2023-05-04T16:05:46.721Z,24.81
2023-05-04T16:08:17.016Z,24.70
2023-05-04T16:10:47.553Z,24.78
2023-05-04T16:13:15.351Z,24.67
2023-05-04T16:15:43.103Z,24.76
2023-05-04T16:18:11.447Z,24.79
2023-05-04T16:20:39.208Z,24.83
2023-05-04T16:23:06.996Z,24.84
2023-05-04T16:25:34.805Z,24.83
2023-05-04T16:28:03.989Z,24.74
2023-05-04T16:33:03.280Z,24.54
2023-05-04T16:35:31.980Z,24.44
2023-05-04T16:38:00.398Z,24.41
2023-05-04T16:40:28.512Z,24.51
2023-05-04T16:42:56.246Z,24.67
2023-05-04T16:45:30.983Z,24.53
2023-05-04T16:48:00.178Z,24.31
2023-05-04T16:50:27.956Z,24.06
2023-05-04T16:52:55.822Z,23.84
2023-05-04T16:55:23.700Z,23.64
2023-05-04T16:57:51.421Z,23.46
2023-05-04T17:00:19.958Z,23.27
2023-05-04T17:02:49.085Z,23.19
2023-05-04T17:05:17.029Z,23.06
2023-05-04T17:07:44.809Z,23.02
2023-05-04T17:10:13.679Z,23.00
2023-05-04T17:12:42.158Z,22.98
2023-05-04T17:15:11.193Z,22.88
2023-05-04T17:17:38.979Z,22.76
2023-05-04T17:20:14.927Z,22.63
2023-05-04T17:22:43.101Z,22.64
2023-05-04T17:29:25.342Z,22.57
2023-05-04T17:31:53.077Z,22.55
2023-05-04T17:34:20.769Z,22.50
2023-05-04T17:36:49.763Z,22.43
2023-05-04T17:39:18.637Z,22.27
2023-05-04T17:41:48.489Z,22.19
2023-05-04T17:44:16.526Z,22.13
2023-05-04T17:46:44.450Z,22.03
2023-05-04T17:49:12.119Z,21.99
2023-05-04T17:51:40.569Z,22.00
2023-05-04T17:54:09.579Z,21.97
2023-05-04T17:56:37.232Z,21.87
2023-05-04T17:59:04.867Z,21.75
2023-05-04T18:01:32.628Z,21.73
2023-05-04T18:04:03.214Z,21.73
2023-05-04T18:06:31.631Z,21.67
2023-05-04T18:08:59.543Z,21.61
2023-05-04T18:11:28.758Z,21.56
2023-05-04T18:13:59.411Z,21.54
2023-05-04T18:16:27.233Z,21.44
2023-05-04T18:18:56.068Z,21.45
2023-05-04T18:21:25.953Z,21.38
2023-05-04T18:23:53.725Z,21.28
2023-05-04T18:26:22.652Z,21.18
2023-05-04T18:28:52.000Z,21.16
2023-05-04T18:31:20.358Z,21.11
2023-05-04T18:33:48.199Z,20.92
2023-05-04T18:36:15.875Z,20.99
2023-05-04T18:38:43.552Z,20.95
2023-05-04T18:41:11.858Z,20.90
2023-05-04T18:43:39.597Z,20.95
2023-05-04T18:46:09.326Z,20.89
2023-05-04T18:48:37.969Z,20.77
2023-05-04T18:51:05.790Z,20.58
2023-05-04T18:53:36.838Z,20.65
2023-05-04T18:56:05.211Z,20.49
2023-05-04T18:58:33.290Z,20.46
2023-05-04T19:01:01.198Z,20.39
2023-05-04T19:03:30.658Z,20.34
2023-05-04T19:05:58.480Z,20.30
2023-05-04T19:08:26.422Z,20.17
2023-05-04T19:10:58.056Z,20.02
2023-05-04T19:13:26.281Z,19.88
2023-05-04T19:15:54.113Z,19.82
2023-05-04T19:18:22.147Z,19.74
2023-05-04T19:20:51.525Z,19.68
2023-05-04T19:23:19.278Z,19.69
2023-05-04T19:25:46.975Z,19.63
2023-05-04T19:28:15.057Z,19.55
2023-05-04T19:30:42.910Z,19.45
2023-05-04T19:33:10.745Z,19.40
2023-05-04T19:35:38.449Z,19.33
2023-05-04T19:38:07.845Z,19.31
2023-05-04T19:40:36.233Z,19.25
2023-05-04T19:43:04.516Z,19.19
2023-05-04T19:45:32.748Z,19.01
2023-05-04T19:48:00.541Z,19.08
2023-05-04T19:50:28.294Z,18.99
2023-05-04T19:52:56.772Z,18.92
2023-05-04T19:55:25.985Z,18.91
2023-05-04T19:57:53.762Z,18.87
2023-05-04T20:00:21.436Z,18.83
2023-05-04T20:02:49.579Z,18.78
2023-05-04T20:05:17.607Z,18.67
2023-05-04T20:07:45.407Z,18.74
2023-05-04T20:10:13.159Z,18.67
2023-05-04T20:12:42.245Z,18.64
2023-05-04T20:15:10.784Z,18.60
2023-05-04T20:17:38.679Z,18.57
2023-05-04T20:20:07.894Z,18.57
2023-05-04T20:22:35.914Z,18.56
2023-05-04T20:25:03.704Z,18.56
2023-05-04T20:27:31.401Z,18.55
2023-05-04T20:30:00.546Z,18.55
2023-05-04T20:32:28.911Z,18.57
2023-05-04T20:34:56.764Z,18.56
2023-05-04T20:37:24.488Z,18.54
2023-05-04T20:39:52.790Z,18.51
2023-05-04T20:42:20.890Z,18.47
2023-05-04T20:44:48.585Z,18.42
2023-05-04T20:47:18.625Z,18.46
2023-05-04T20:49:46.408Z,18.42
2023-05-04T20:52:14.153Z,18.42
2023-05-04T20:54:42.378Z,18.42
2023-05-04T20:57:10.386Z,18.41
2023-05-04T20:59:38.234Z,18.44
2023-05-04T21:02:05.987Z,18.39
2023-05-04T21:04:35.123Z,18.30
2023-05-04T21:07:02.882Z,18.23
2023-05-04T21:09:30.602Z,18.23
2023-05-04T21:11:58.457Z,18.15
2023-05-04T21:14:26.230Z,18.18
2023-05-04T21:16:53.948Z,18.17
2023-05-04T21:19:21.661Z,18.21
2023-05-04T21:21:50.824Z,18.25
2023-05-04T21:24:18.573Z,18.27
2023-05-04T21:26:48.392Z,18.30
2023-05-04T21:29:16.324Z,18.31
2023-05-04T21:31:44.278Z,18.31
2023-05-04T21:34:12.239Z,18.27
2023-05-04T21:36:40.425Z,18.25
2023-05-04T21:39:09.588Z,18.24
2023-05-04T21:41:37.404Z,18.18
2023-05-04T21:44:05.481Z,18.19
2023-05-04T21:46:33.231Z,18.17
2023-05-04T21:49:01.293Z,18.15
2023-05-04T21:51:29.368Z,18.11
2023-05-04T21:53:57.132Z,18.06
2023-05-04T21:56:26.265Z,18.02
2023-05-04T21:58:54.095Z,18.00
2023-05-04T22:01:22.030Z,17.92
2023-05-04T22:03:50.609Z,17.94
2023-05-04T22:06:18.776Z,17.93
2023-05-04T22:08:46.594Z,17.93
2023-05-04T22:11:14.366Z,17.91
2023-05-04T22:13:43.587Z,17.93
2023-05-04T22:16:11.372Z,17.92
2023-05-04T22:18:39.514Z,17.86
2023-05-04T22:21:07.320Z,17.93
2023-05-04T22:23:35.084Z,17.99
2023-05-04T22:26:03.254Z,17.96
2023-05-04T22:28:31.147Z,17.94
2023-05-04T22:31:00.622Z,17.90
2023-05-04T22:33:28.405Z,17.85
2023-05-04T22:35:56.104Z,17.82
2023-05-04T22:38:23.984Z,17.78
2023-05-04T22:40:51.768Z,17.78
2023-05-04T22:43:19.667Z,17.77
2023-05-04T22:45:47.423Z,17.76
2023-05-04T22:48:16.625Z,17.76
2023-05-04T22:50:44.403Z,17.73
2023-05-04T22:53:12.103Z,17.68
2023-05-04T22:55:39.865Z,17.66
2023-05-04T22:58:07.997Z,17.63
2023-05-04T23:00:36.421Z,17.52
2023-05-04T23:03:04.423Z,17.56
2023-05-04T23:05:33.584Z,17.56
2023-05-04T23:08:01.357Z,17.51
2023-05-04T23:10:29.180Z,17.47
2023-05-04T23:12:57.150Z,17.51
2023-05-04T23:15:25.466Z,17.54
2023-05-04T23:17:53.605Z,17.51
2023-05-04T23:20:21.540Z,17.48
2023-05-04T23:22:50.983Z,17.44
2023-05-04T23:25:18.862Z,17.41
2023-05-04T23:27:46.706Z,17.38
2023-05-04T23:30:15.616Z,17.42
2023-05-04T23:32:43.356Z,17.43
2023-05-04T23:35:11.179Z,17.53
2023-05-04T23:37:38.990Z,17.51
2023-05-04T23:40:10.147Z,17.49
2023-05-04T23:42:38.307Z,17.57
2023-05-04T23:45:07.491Z,17.57
2023-05-04T23:47:35.193Z,17.61
2023-05-04T23:50:03.041Z,17.68
2023-05-04T23:52:30.797Z,17.73
2023-05-04T23:54:58.568Z,17.72
2023-05-04T23:57:27.677Z,17.63
2023-05-04T23:59:55.401Z,17.60
